Time;durP1;ratioP1;P1;durP2;ratioP2;P2;SDS_P1;SDS_P2;PMS_P1;PMS_P2;Temp;Humidity;BMP_temperature;BMP_pressure;BME280_temperature;BME280_humidity;BME280_pressure;Samples;Min_cycle;Max_cycle;Signal;HPM_P1;HPM_P2
2022/07/02 00:02:23;;;;;;;10.20;7.13;;;;;;;21.52;71.09;100918.09;5050534;28;20127;-82
2022/07/02 00:05:00;;;;;;;9.25;6.95;;;;;;;21.55;70.91;100920.41;5015415;28;20044;-83
2022/07/02 00:07:26;;;;;;;9.82;6.85;;;;;;;21.53;70.83;100920.63;5018471;28;20507;-83
2022/07/02 00:09:53;;;;;;;8.38;6.57;;;;;;;21.56;70.64;100916.59;5036348;28;20105;-83
2022/07/02 00:12:19;;;;;;;11.68;6.38;;;;;;;21.44;70.31;100909.13;5038278;28;20119;-82
2022/07/02 00:14:45;;;;;;;10.13;6.63;;;;;;;21.46;70.20;100917.94;5038479;28;20124;-82
2022/07/02 00:17:11;;;;;;;14.27;6.90;;;;;;;21.44;70.22;100908.31;5054912;28;20067;-83
2022/07/02 00:19:37;;;;;;;12.32;6.50;;;;;;;21.37;70.24;100907.50;5038566;28;20055;-83
2022/07/02 00:22:03;;;;;;;8.13;6.57;;;;;;;21.29;69.93;100893.06;5034784;28;20525;-83
2022/07/02 00:24:28;;;;;;;10.10;6.63;;;;;;;21.36;69.98;100911.31;5072309;28;20048;-83
2022/07/02 00:26:57;;;;;;;9.85;6.18;;;;;;;21.29;69.39;100895.81;5072485;28;20434;-82
2022/07/02 00:29:43;;;;;;;8.32;6.22;;;;;;;21.33;69.36;100911.75;5055307;28;20400;-82
2022/07/02 00:32:08;;;;;;;11.35;6.05;;;;;;;21.20;69.36;100915.47;5029340;28;20068;-84
2022/07/02 00:34:36;;;;;;;8.55;5.80;;;;;;;21.08;69.74;100905.25;5033118;28;20060;-83
2022/07/02 00:37:02;;;;;;;7.80;5.97;;;;;;;21.12;69.73;100905.66;5053958;28;20063;-83
2022/07/02 00:39:27;;;;;;;8.75;6.28;;;;;;;21.14;69.26;100909.00;5024961;28;20033;-82
2022/07/02 00:41:53;;;;;;;9.38;6.10;;;;;;;21.10;69.34;100906.94;5045803;28;20039;-81
2022/07/02 00:44:22;;;;;;;10.80;6.60;;;;;;;20.99;69.38;100906.59;5016757;28;20064;-82
2022/07/02 00:46:47;;;;;;;7.70;6.18;;;;;;;20.98;69.91;100899.47;5018315;28;20032;-82
2022/07/02 00:49:13;;;;;;;6.60;5.90;;;;;;;20.96;69.96;100906.22;5034659;28;20041;-83
2022/07/02 00:51:38;;;;;;;8.20;6.30;;;;;;;21.02;69.88;100918.97;5036918;28;20048;-83
2022/07/02 00:54:04;;;;;;;8.68;5.90;;;;;;;21.01;69.78;100920.88;5020986;28;20041;-83
2022/07/02 00:56:30;;;;;;;10.00;6.22;;;;;;;21.02;70.03;100917.06;5053866;28;20120;-82
2022/07/02 00:58:55;;;;;;;6.70;6.00;;;;;;;20.92;70.09;100915.94;5033052;28;20036;-82
2022/07/02 01:01:21;;;;;;;8.40;6.28;;;;;;;20.84;70.34;100909.69;5037759;28;20499;-83
2022/07/02 01:03:47;;;;;;;10.15;6.45;;;;;;;20.83;70.18;100916.19;5020671;28;20362;-84
2022/07/02 01:06:13;;;;;;;11.38;6.40;;;;;;;20.82;70.27;100917.25;5036955;28;20048;-82
2022/07/02 01:11:22;;;;;;;8.02;5.90;;;;;;;20.76;70.33;100912.69;5041958;28;20626;-81
2022/07/02 01:13:48;;;;;;;8.35;6.45;;;;;;;20.80;70.32;100919.38;5054096;28;20060;-81
2022/07/02 01:16:13;;;;;;;9.10;6.47;;;;;;;20.73;70.40;100921.31;5053556;28;20048;-82
2022/07/02 01:18:39;;;;;;;7.88;6.65;;;;;;;20.68;70.26;100910.22;5052263;28;20047;-84
2022/07/02 01:21:05;;;;;;;9.13;6.38;;;;;;;20.64;70.44;100914.47;5016415;28;20143;-82
2022/07/02 01:23:30;;;;;;;9.50;6.32;;;;;;;20.57;70.11;100895.38;5061786;28;20028;-82
2022/07/02 01:25:56;;;;;;;9.55;6.38;;;;;;;20.70;70.65;100919.06;5053390;28;20095;-81
2022/07/02 01:28:22;;;;;;;9.13;6.72;;;;;;;20.65;70.83;100910.69;5028044;28;20040;-83
2022/07/02 01:30:47;;;;;;;9.23;6.45;;;;;;;20.64;70.85;100911.72;5036848;28;20040;-82
2022/07/02 01:33:13;;;;;;;9.80;6.55;;;;;;;20.54;70.52;100903.16;5032490;28;20127;-82
2022/07/02 01:35:42;;;;;;;9.40;6.63;;;;;;;20.61;70.87;100917.63;5053312;28;20047;-83
2022/07/02 01:38:07;;;;;;;9.10;6.97;;;;;;;20.58;70.86;100920.78;5054315;28;20040;-83
2022/07/02 01:40:33;;;;;;;12.35;6.68;;;;;;;20.56;71.12;100925.66;5020053;28;20024;-82
2022/07/02 01:42:58;;;;;;;14.40;6.47;;;;;;;20.53;71.08;100920.59;5067268;28;20097;-82
2022/07/02 01:45:24;;;;;;;10.35;6.60;;;;;;;20.53;70.77;100920.59;5036377;28;20032;-82
2022/07/02 01:47:50;;;;;;;10.20;7.00;;;;;;;20.49;71.11;100924.84;5052827;28;20124;-82
2022/07/02 01:50:15;;;;;;;11.23;6.30;;;;;;;20.46;70.84;100923.38;5053363;28;20086;-81
2022/07/02 01:52:41;;;;;;;8.52;6.82;;;;;;;20.34;71.02;100919.66;5054558;28;20111;-82
2022/07/02 01:55:07;;;;;;;9.95;6.63;;;;;;;20.29;71.10;100920.31;5052626;28;20056;-81
2022/07/02 01:57:35;;;;;;;10.85;6.38;;;;;;;20.35;71.00;100924.91;5048125;28;20044;-83
2022/07/02 02:00:11;;;;;;;10.45;6.53;;;;;;;20.24;70.83;100909.22;5056613;28;20063;-82
2022/07/02 02:02:37;;;;;;;9.45;6.85;;;;;;;20.32;70.85;100939.00;5057075;28;20056;-84
2022/07/02 02:05:03;;;;;;;9.52;6.53;;;;;;;20.22;70.53;100927.72;5064164;28;20128;-83
2022/07/02 02:07:30;;;;;;;8.68;6.80;;;;;;;20.21;70.42;100915.13;5054368;28;20126;-83
2022/07/02 02:09:55;;;;;;;7.75;6.43;;;;;;;20.21;70.19;100917.84;5052979;28;20119;-82
2022/07/02 02:12:21;;;;;;;7.47;6.30;;;;;;;20.26;70.13;100928.97;5040852;28;20147;-82
2022/07/02 02:14:47;;;;;;;12.20;6.43;;;;;;;20.10;70.17;100910.34;5053314;28;20036;-81
2022/07/02 02:17:12;;;;;;;7.47;6.25;;;;;;;20.01;70.25;100907.88;5018538;28;20037;-82
2022/07/02 02:19:38;;;;;;;9.10;6.38;;;;;;;20.06;70.10;100925.47;5016808;28;20040;-82
2022/07/02 02:22:04;;;;;;;10.60;6.32;;;;;;;20.06;70.03;100928.22;5032478;28;20500;-82
2022/07/02 02:24:29;;;;;;;10.45;6.15;;;;;;;20.05;69.98;100929.28;5051924;28;20113;-84
2022/07/02 02:26:55;;;;;;;8.02;6.47;;;;;;;20.05;69.70;100935.56;5032524;28;20060;-83
2022/07/02 02:29:22;;;;;;;10.25;6.28;;;;;;;19.99;70.04;100939.16;5033086;28;20047;-82
2022/07/02 02:31:47;;;;;;;10.25;6.60;;;;;;;19.86;70.16;100925.59;5051931;28;20586;-82
2022/07/02 02:34:13;;;;;;;;;;;;;;;19.97;69.96;100947.56;5037093;28;20056;-83
2022/07/02 02:36:38;;;;;;;8.43;6.20;;;;;;;19.89;70.29;100941.50;5073555;28;19965;-83
2022/07/02 02:39:04;;;;;;;7.65;6.18;;;;;;;19.87;70.02;100949.91;5020441;28;20453;-82
2022/07/02 02:41:29;;;;;;;12.10;6.40;;;;;;;19.83;70.50;100948.69;5042894;28;20044;-82
2022/07/02 02:43:55;;;;;;;7.97;6.45;;;;;;;19.79;70.67;100955.63;5062998;28;20047;-82
2022/07/02 02:46:20;;;;;;;;;;;;;;;19.85;70.62;100952.00;5060214;28;20037;-82
2022/07/02 02:48:46;;;;;;;9.65;6.30;;;;;;;19.83;70.82;100937.78;5042497;28;19915;-82
2022/07/02 02:51:14;;;;;;;8.80;6.60;;;;;;;19.81;70.59;100942.59;5040937;28;20064;-82
2022/07/02 02:53:43;;;;;;;8.30;6.60;;;;;;;19.80;70.71;100963.56;5047221;28;20033;-82
2022/07/02 02:56:09;;;;;;;11.57;6.97;;;;;;;19.84;70.85;100969.44;5029605;28;20068;-83
2022/07/02 02:58:35;;;;;;;10.63;7.65;;;;;;;19.89;70.84;100971.53;5047110;28;20060;-84
2022/07/02 03:01:00;;;;;;;;;;;;;;;19.86;70.98;100971.97;5062412;28;20037;-81
2022/07/02 03:03:26;;;;;;;15.23;9.95;;;;;;;19.79;72.11;100963.78;5059764;28;19912;-84
2022/07/02 03:05:52;;;;;;;15.10;10.98;;;;;;;19.86;72.96;100972.78;5046162;28;20028;-83
2022/07/02 03:08:17;;;;;;;15.65;11.10;;;;;;;19.75;73.37;100959.81;5053608;28;20032;-81
2022/07/02 03:10:43;;;;;;;19.63;11.23;;;;;;;19.86;73.18;100978.25;5029189;28;20496;-82
2022/07/02 03:13:08;;;;;;;;;;;;;;;19.94;73.02;100980.72;5027869;28;20516;-84
2022/07/02 03:15:34;;;;;;;18.23;12.10;;;;;;;19.88;73.73;100978.03;5059194;28;20019;-82
2022/07/02 03:17:59;;;;;;;18.67;12.55;;;;;;;19.91;73.55;100975.72;5063246;28;20032;-82
2022/07/02 03:20:25;;;;;;;22.17;12.35;;;;;;;20.02;73.01;100980.50;5046628;28;20037;-81
2022/07/02 03:22:51;;;;;;;20.77;12.00;;;;;;;20.13;72.52;100983.59;5046373;28;20056;-82
2022/07/02 03:25:16;;;;;;;19.85;11.48;;;;;;;20.18;71.73;100981.06;5029800;28;20047;-83
2022/07/02 03:27:42;;;;;;;18.35;11.35;;;;;;;20.21;71.60;100981.47;5046720;28;20120;-82
2022/07/02 03:30:08;;;;;;;21.42;11.13;;;;;;;20.23;71.59;100986.72;5045479;28;20051;-83
2022/07/02 03:32:34;;;;;;;19.60;10.88;;;;;;;20.31;71.15;100986.47;5047014;28;20094;-82
2022/07/02 03:34:59;;;;;;;16.80;9.48;;;;;;;20.35;70.75;100984.97;5043666;28;20461;-81
2022/07/02 03:37:28;;;;;;;13.90;9.10;;;;;;;20.36;70.18;100989.38;5028408;28;20040;-83
2022/07/02 03:39:54;;;;;;;14.93;9.38;;;;;;;20.45;70.26;100996.25;5033235;28;20037;-81
2022/07/02 03:42:20;;;;;;;17.77;10.30;;;;;;;20.41;70.26;100984.09;5048351;28;20060;-82
2022/07/02 03:44:45;;;;;;;18.42;10.10;;;;;;;20.55;70.09;100994.94;5044816;28;20036;-84
2022/07/02 03:47:11;;;;;;;17.88;9.85;;;;;;;20.49;70.13;100979.47;5065068;28;20070;-81
2022/07/02 03:49:37;;;;;;;16.42;9.93;;;;;;;20.55;69.88;100993.06;5030104;28;20037;-82
2022/07/02 03:52:03;;;;;;;16.52;9.32;;;;;;;20.72;69.37;100987.97;5041642;28;20036;-82
2022/07/02 03:54:29;;;;;;;26.13;15.65;;;;;;;20.72;70.07;100992.56;5019071;28;20039;-81
2022/07/02 03:56:54;;;;;;;33.22;16.67;;;;;;;20.73;70.58;100981.44;5083528;28;20056;-81
2022/07/02 03:59:20;;;;;;;34.08;17.60;;;;;;;20.77;71.13;100996.34;5047347;28;20043;-84
2022/07/02 04:01:45;;;;;;;38.58;17.48;;;;;;;20.74;71.29;100976.78;5028869;28;20033;-82
2022/07/02 04:04:11;;;;;;;34.88;18.98;;;;;;;21.00;71.09;101000.34;5081970;28;20527;-81
2022/07/02 04:06:37;;;;;;;43.88;18.08;;;;;;;21.17;70.87;101000.69;5066707;28;20036;-82
2022/07/02 04:09:02;;;;;;;33.55;17.52;;;;;;;21.34;70.56;101006.41;5028973;28;20040;-83
2022/07/02 04:11:28;;;;;;;29.73;16.02;;;;;;;21.60;70.29;100994.41;5048653;28;20067;-81
2022/07/02 04:13:54;;;;;;;26.48;15.13;;;;;;;21.85;69.57;101002.59;5047702;28;20045;-82
2022/07/02 04:16:19;;;;;;;30.08;14.43;;;;;;;22.11;68.40;101002.25;5050333;28;20036;-82
2022/07/02 04:18:45;;;;;;;31.45;20.10;;;;;;;22.21;68.12;100979.00;5031907;28;20071;-82
2022/07/02 04:21:10;;;;;;;52.40;32.75;;;;;;;22.59;67.24;101002.53;5062289;28;20494;-82
2022/07/02 04:23:36;;;;;;;53.00;38.90;;;;;;;22.75;66.57;100996.38;5036761;28;20063;-83
2022/07/02 04:26:01;;;;;;;70.90;54.55;;;;;;;22.92;65.86;101008.38;5042601;28;20060;-82
2022/07/02 04:28:27;;;;;;;79.95;59.97;;;;;;;22.93;65.51;101000.97;5055357;28;20033;-82
2022/07/02 04:30:53;;;;;;;60.10;42.10;;;;;;;23.13;64.98;101006.16;5038045;28;20495;-82
2022/07/02 04:33:18;;;;;;;42.72;30.05;;;;;;;23.35;64.70;101001.78;5033251;28;20131;-82
2022/07/02 04:35:44;;;;;;;36.03;22.95;;;;;;;23.72;63.28;101018.00;5031710;28;20472;-82
2022/07/02 04:38:10;;;;;;;26.60;18.77;;;;;;;23.90;62.40;101005.25;5055111;28;20036;-83
2022/07/02 04:40:35;;;;;;;26.60;16.13;;;;;;;24.11;61.79;101007.34;5054576;28;20381;-84
2022/07/02 04:43:01;;;;;;;27.67;13.98;;;;;;;24.35;61.57;101016.38;5050200;28;20044;-83
2022/07/02 04:45:26;;;;;;;20.23;12.90;;;;;;;24.52;60.63;101010.13;5038089;28;20492;-83
2022/07/02 04:47:52;;;;;;;17.83;13.10;;;;;;;24.68;60.77;101020.34;5038750;28;20523;-83
2022/07/02 04:50:18;;;;;;;21.50;12.20;;;;;;;24.94;59.81;101009.81;5055194;28;20158;-83
2022/07/02 04:52:48;;;;;;;19.48;12.77;;;;;;;25.21;59.11;101018.25;5035324;28;20044;-82
2022/07/02 04:55:13;;;;;;;21.65;13.50;;;;;;;25.49;58.56;101028.34;5053811;28;20094;-82
2022/07/02 04:57:39;;;;;;;20.50;12.40;;;;;;;25.67;57.77;101032.75;5044929;28;20471;-83
2022/07/02 05:00:05;;;;;;;20.85;12.40;;;;;;;25.70;57.84;101013.78;5057863;28;20032;-83
2022/07/02 05:02:31;;;;;;;16.75;11.60;;;;;;;25.98;57.48;101027.72;5054897;28;20036;-81
2022/07/02 05:04:56;;;;;;;17.02;11.52;;;;;;;26.06;57.38;101025.34;5025328;28;20472;-82
2022/07/02 05:07:22;;;;;;;18.88;11.45;;;;;;;26.18;57.16;101030.75;5053175;28;20496;-82
2022/07/02 05:09:48;;;;;;;17.13;12.05;;;;;;;26.30;56.71;101042.47;5037458;28;20453;-82
2022/07/02 05:12:13;;;;;;;19.23;11.40;;;;;;;26.60;56.38;101037.59;5053694;28;20439;-83
2022/07/02 05:14:39;;;;;;;20.08;11.63;;;;;;;26.75;56.08;101037.75;5020650;28;20075;-81
2022/07/02 05:17:05;;;;;;;14.38;10.38;;;;;;;26.91;55.85;101039.59;5034055;28;20032;-83
2022/07/02 05:19:30;;;;;;;15.77;10.75;;;;;;;26.98;55.18;101039.38;5021524;28;20154;-82
2022/07/02 05:21:56;;;;;;;18.35;10.70;;;;;;;27.03;55.36;101031.16;5054328;28;20060;-84
2022/07/02 05:24:21;;;;;;;19.30;11.05;;;;;;;27.29;54.42;101032.22;5053932;28;20489;-82
2022/07/02 05:26:47;;;;;;;17.48;10.20;;;;;;;27.61;54.00;101041.59;5036896;28;20113;-81
2022/07/02 05:29:12;;;;;;;16.60;10.27;;;;;;;27.57;53.66;101016.41;5054558;28;20041;-82
2022/07/02 05:31:38;;;;;;;15.02;10.15;;;;;;;27.90;53.11;101037.38;5033247;28;20087;-83
2022/07/02 05:34:04;;;;;;;16.55;10.93;;;;;;;27.66;53.73;101042.44;5044308;28;20058;-83
2022/07/02 05:36:29;;;;;;;17.58;10.13;;;;;;;27.93;53.09;101034.09;5037234;28;20043;-83
2022/07/02 05:38:55;;;;;;;14.73;10.07;;;;;;;28.17;52.58;101037.25;5020860;28;20574;-83
2022/07/02 05:41:20;;;;;;;15.85;10.02;;;;;;;28.36;52.37;101045.88;5053086;28;20040;-82
2022/07/02 05:43:46;;;;;;;17.65;10.82;;;;;;;28.35;52.57;101047.00;5047613;28;20377;-82
2022/07/02 05:46:12;;;;;;;17.10;12.00;;;;;;;28.44;52.36;101046.47;5063565;28;20072;-84
2022/07/02 05:48:37;;;;;;;16.25;11.15;;;;;;;28.67;51.67;101046.00;5042453;28;20041;-84
2022/07/02 05:51:04;;;;;;;16.85;11.60;;;;;;;28.60;51.83;101045.44;5010554;28;20036;-82
2022/07/02 05:53:30;;;;;;;20.58;11.82;;;;;;;28.70;51.68;101045.44;5020178;28;20032;-82
2022/07/02 05:55:55;;;;;;;17.75;11.93;;;;;;;28.90;51.57;101064.03;5035742;28;20047;-83
2022/07/02 05:58:21;;;;;;;19.25;12.40;;;;;;;28.94;50.92;101053.25;5036485;28;20064;-84
2022/07/02 06:00:47;;;;;;;15.18;10.80;;;;;;;29.13;50.64;101054.44;5057866;28;20032;-83
2022/07/02 06:03:12;;;;;;;16.40;10.70;;;;;;;29.45;50.00;101064.38;5053162;28;20136;-83
2022/07/02 06:08:22;;;;;;;16.33;11.20;;;;;;;29.52;49.82;101070.47;5041092;28;20568;-83
2022/07/02 06:10:47;;;;;;;14.30;10.00;;;;;;;29.48;49.95;101050.00;5052319;28;20122;-84
2022/07/02 06:13:15;;;;;;;17.17;9.70;;;;;;;29.72;49.35;101071.59;5053591;28;20534;-82
2022/07/02 06:15:41;;;;;;;16.65;10.23;;;;;;;29.95;48.87;101071.00;5072177;28;20029;-83
2022/07/02 06:18:06;;;;;;;12.85;10.23;;;;;;;30.13;48.00;101077.88;5044220;28;20043;-83
2022/07/02 06:20:32;;;;;;;14.05;10.20;;;;;;;30.12;48.34;101078.16;5037373;28;20123;-84
2022/07/02 06:22:58;;;;;;;11.18;9.32;;;;;;;30.08;48.44;101064.84;5053546;28;20029;-83
2022/07/02 06:25:23;;;;;;;14.18;10.02;;;;;;;30.15;48.27;101077.59;5051937;28;20562;-82
2022/07/02 06:27:54;;;;;;;9.57;7.18;;;;;;;29.93;49.04;101062.13;5051516;28;20036;-83
2022/07/02 06:30:20;;;;;;;11.40;6.80;;;;;;;30.16;49.25;101073.72;5021405;28;20041;-82
2022/07/02 06:32:46;;;;;;;7.95;7.15;;;;;;;30.27;48.81;101072.59;5037134;28;20404;-83
2022/07/02 06:35:11;;;;;;;11.95;7.57;;;;;;;30.33;48.52;101074.22;5036735;28;20064;-85
2022/07/02 06:37:37;;;;;;;11.80;7.43;;;;;;;30.34;48.89;101066.72;5019194;28;20071;-84
2022/07/02 06:40:04;;;;;;;12.23;6.80;;;;;;;29.90;50.06;101079.34;5034949;28;20033;-83
2022/07/02 06:42:30;;;;;;;8.80;6.68;;;;;;;30.21;48.91;101082.03;5076976;28;20093;-83
2022/07/02 06:44:56;;;;;;;9.45;7.25;;;;;;;30.01;48.99;101080.13;5054237;28;20032;-84
2022/07/02 06:47:22;;;;;;;12.85;6.95;;;;;;;30.18;48.44;101077.88;5071389;28;20526;-84
2022/07/02 06:49:48;;;;;;;9.80;6.80;;;;;;;30.39;48.50;101078.66;5037001;28;20044;-85
2022/07/02 06:52:16;;;;;;;14.52;7.35;;;;;;;30.30;48.35;101080.34;5033408;28;20075;-83
2022/07/02 06:54:42;;;;;;;9.38;6.70;;;;;;;30.24;48.33;101067.56;5029230;28;20086;-84
2022/07/02 06:57:08;;;;;;;10.48;6.20;;;;;;;30.54;48.43;101079.69;5051293;28;20143;-83
2022/07/02 06:59:34;;;;;;;10.50;5.90;;;;;;;30.68;47.89;101081.56;5036015;28;20036;-83
2022/07/02 07:01:59;;;;;;;12.00;6.45;;;;;;;30.47;48.03;101089.16;5051060;28;20041;-84
2022/07/02 07:04:28;;;;;;;10.30;6.68;;;;;;;30.86;47.21;101101.44;5051776;28;20043;-82
2022/07/02 07:06:55;;;;;;;8.68;7.00;;;;;;;30.87;47.26;101080.94;5052312;28;20502;-84
2022/07/02 07:09:20;;;;;;;8.88;7.00;;;;;;;30.93;47.10;101085.34;5035169;28;20048;-83
2022/07/02 07:11:46;;;;;;;13.10;6.20;;;;;;;31.25;46.77;101098.69;5051578;28;20071;-82
2022/07/02 07:14:12;;;;;;;8.32;6.75;;;;;;;31.08;47.28;101087.16;5035562;28;20393;-83
2022/07/02 07:16:37;;;;;;;10.48;6.82;;;;;;;30.97;47.09;101096.69;5023210;28;20050;-84
2022/07/02 07:19:06;;;;;;;10.27;6.78;;;;;;;31.01;47.15;101098.59;5035481;28;20036;-82
2022/07/02 07:21:32;;;;;;;7.75;6.13;;;;;;;30.91;47.15;101088.41;5055204;28;20365;-83
2022/07/02 07:23:58;;;;;;;6.65;5.65;;;;;;;31.50;45.98;101088.53;5040300;28;20059;-85
2022/07/02 07:26:23;;;;;;;7.80;5.72;;;;;;;31.33;46.15;101088.94;5044002;28;20481;-84
2022/07/02 07:28:49;;;;;;;6.60;5.43;;;;;;;31.12;46.60;101110.47;5042748;28;20113;-82
2022/07/02 07:31:19;;;;;;;9.98;5.38;;;;;;;30.81;47.23;101110.63;5011363;28;20094;-83
2022/07/02 07:33:52;;;;;;;8.00;5.40;;;;;;;30.81;47.22;101099.53;5071655;28;20044;-86
2022/07/02 07:36:18;;;;;;;7.50;5.50;;;;;;;30.91;46.93;101107.81;5054356;28;20025;-84
2022/07/02 07:38:44;;;;;;;6.88;5.38;;;;;;;30.64;46.19;101104.59;5071736;28;20036;-81
2022/07/02 07:41:10;;;;;;;7.97;5.15;;;;;;;30.82;47.07;101108.69;5059332;28;20511;-83
2022/07/02 07:43:35;;;;;;;7.13;5.80;;;;;;;30.86;47.32;101091.22;5023223;28;20037;-84
2022/07/02 07:46:01;;;;;;;7.10;4.90;;;;;;;31.15;46.99;101097.97;5038257;28;20033;-84
2022/07/02 07:48:27;;;;;;;8.50;5.20;;;;;;;31.54;46.69;101111.84;5023784;28;20503;-82
2022/07/02 07:50:52;;;;;;;6.30;5.28;;;;;;;31.57;46.27;101110.44;5055069;28;20071;-82
2022/07/02 07:53:18;;;;;;;7.35;5.47;;;;;;;31.55;45.81;101097.66;5037768;28;20454;-83
2022/07/02 07:55:44;;;;;;;5.80;5.20;;;;;;;31.02;46.85;101111.34;4980972;28;1275920;-82
2022/07/02 07:58:09;;;;;;;7.88;4.97;;;;;;;31.28;46.23;101108.41;5056100;28;20032;-83
2022/07/02 08:00:35;;;;;;;9.98;5.13;;;;;;;30.94;46.51;101097.25;5039496;28;20029;-83
2022/07/02 08:03:01;;;;;;;9.18;5.05;;;;;;;31.13;45.17;101110.16;5022836;28;20040;-82
2022/07/02 08:05:31;;;;;;;6.53;4.75;;;;;;;31.80;44.59;101098.53;5037186;28;20032;-81
2022/07/02 08:07:57;;;;;;;7.82;4.35;;;;;;;31.32;44.02;101081.69;5004691;28;20057;-81
2022/07/02 08:10:23;;;;;;;8.45;4.45;;;;;;;31.34;43.66;101113.63;5050711;28;20036;-83
2022/07/02 08:12:50;;;;;;;6.97;4.68;;;;;;;31.14;44.05;101111.03;5017248;28;20040;-84
2022/07/02 08:15:15;;;;;;;7.85;4.63;;;;;;;31.34;42.50;101091.41;5013501;28;20037;-83
2022/07/02 08:17:41;;;;;;;9.25;4.45;;;;;;;31.64;42.19;101102.59;5022613;28;20056;-82
2022/07/02 08:20:07;;;;;;;6.88;4.53;;;;;;;31.40;43.24;101116.34;5057591;28;20127;-83
2022/07/02 08:22:33;;;;;;;9.57;5.00;;;;;;;31.23;42.55;101125.09;5056470;28;20036;-81
2022/07/02 08:24:59;;;;;;;5.90;4.53;;;;;;;31.11;43.28;101109.63;5056257;28;20125;-83
2022/07/02 08:27:25;;;;;;;8.95;4.82;;;;;;;31.87;41.53;101112.09;5036479;28;20037;-84
2022/07/02 08:29:52;;;;;;;8.55;5.32;;;;;;;32.31;41.15;101100.81;5019951;28;20033;-83
2022/07/02 08:32:18;;;;;;;6.68;4.70;;;;;;;32.96;39.41;101114.13;5056210;28;20125;-82
2022/07/02 08:34:43;;;;;;;9.88;6.40;;;;;;;33.64;38.19;101112.00;5039515;28;20048;-82
2022/07/02 08:37:09;;;;;;;6.30;4.60;;;;;;;33.81;36.91;101098.31;5039461;28;20024;-83
2022/07/02 08:39:35;;;;;;;5.88;4.30;;;;;;;34.01;36.74;101121.38;5040194;28;20104;-82
2022/07/02 08:42:01;;;;;;;8.88;4.25;;;;;;;34.63;35.14;101123.78;5061000;28;20098;-82
2022/07/02 08:44:26;;;;;;;5.85;4.32;;;;;;;34.82;34.30;101123.69;5028665;28;20033;-83
2022/07/02 08:46:52;;;;;;;7.63;4.80;;;;;;;34.97;33.39;101114.94;5062251;28;20154;-82
2022/07/02 08:49:18;;;;;;;5.07;4.40;;;;;;;35.26;32.85;101128.56;5031381;28;20032;-81
2022/07/02 08:51:51;;;;;;;7.95;4.85;;;;;;;34.84;33.23;101126.97;5028406;28;20040;-82
2022/07/02 08:54:17;;;;;;;10.05;4.40;;;;;;;34.72;33.19;101107.16;5044890;28;20120;-83
2022/07/02 08:56:45;;;;;;;11.40;4.43;;;;;;;34.85;32.42;101128.63;5038511;28;20588;-82
2022/07/02 08:59:11;;;;;;;7.88;4.78;;;;;;;34.59;32.49;101108.81;5045650;28;20044;-82
2022/07/02 09:01:37;;;;;;;5.35;4.20;;;;;;;35.03;31.82;101124.88;5028755;28;20066;-83
2022/07/02 09:04:05;;;;;;;8.05;4.50;;;;;;;35.50;31.32;101116.22;5042150;28;20055;-82
2022/07/02 09:06:31;;;;;;;5.55;4.10;;;;;;;36.13;29.80;101114.31;5030242;28;20102;-83
2022/07/02 09:08:56;;;;;;;8.30;4.78;;;;;;;36.34;29.54;101101.38;5028966;28;20032;-83
2022/07/02 09:11:28;;;;;;;8.95;4.68;;;;;;;36.16;29.22;101121.25;5030525;28;20492;-82
2022/07/02 09:13:56;;;;;;;6.60;4.38;;;;;;;35.79;29.53;101115.75;5031594;28;20031;-84
2022/07/02 09:16:22;;;;;;;5.53;3.92;;;;;;;35.47;28.44;101111.25;5046947;28;20101;-82
2022/07/02 09:18:48;;;;;;;6.57;4.10;;;;;;;35.74;28.06;101121.50;5031557;28;20442;-83
2022/07/02 09:21:13;;;;;;;5.03;3.90;;;;;;;36.03;28.18;101118.19;5049763;28;20812;-84
2022/07/02 09:23:50;;;;;;;6.03;3.92;;;;;;;36.98;27.46;101125.25;5027571;28;20067;-82
2022/07/02 09:26:28;;;;;;;9.27;4.55;;;;;;;37.82;26.29;101123.06;5023649;28;20064;-83
2022/07/02 09:29:01;;;;;;;7.55;4.13;;;;;;;38.23;26.04;101124.41;5055665;28;20492;-82
2022/07/02 09:31:29;;;;;;;7.88;4.03;;;;;;;37.87;25.92;101116.44;5021542;28;20045;-84
2022/07/02 09:33:55;;;;;;;6.43;3.95;;;;;;;38.58;25.67;101127.06;5011885;28;20123;-83
2022/07/02 09:36:21;;;;;;;9.00;3.95;;;;;;;39.53;23.99;101128.31;5036605;28;20115;-83
2022/07/02 09:38:48;;;;;;;7.57;4.15;;;;;;;39.91;23.05;101123.63;5036780;28;20036;-83
2022/07/02 09:41:18;;;;;;;9.10;4.05;;;;;;;40.20;23.70;101148.75;5032028;28;20040;-82
2022/07/02 09:43:44;;;;;;;6.22;3.92;;;;;;;39.42;24.85;101129.91;5020774;28;20024;-85
2022/07/02 09:46:20;;;;;;;6.32;3.88;;;;;;;39.70;24.11;101144.19;5037020;28;20036;-82
2022/07/02 09:48:46;;;;;;;5.28;3.60;;;;;;;40.43;22.22;101140.69;5036131;28;20090;-83
2022/07/02 09:51:13;;;;;;;4.15;3.70;;;;;;;39.38;23.94;101128.97;5052599;28;20392;-81
2022/07/02 09:53:55;;;;;;;7.85;3.60;;;;;;;40.10;23.99;101129.50;5020240;28;20094;-83
2022/07/02 09:56:21;;;;;;;4.10;3.65;;;;;;;39.35;23.81;101140.88;5020288;28;20047;-82
2022/07/02 09:58:47;;;;;;;5.65;4.10;;;;;;;38.38;25.20;101145.50;5071720;28;20040;-84
2022/07/02 10:01:17;;;;;;;7.15;3.78;;;;;;;37.50;26.78;101125.25;5053180;28;20123;-84
2022/07/02 10:03:53;;;;;;;5.03;3.92;;;;;;;38.95;25.00;101139.38;5035607;28;20041;-83
2022/07/02 10:06:19;;;;;;;5.65;3.50;;;;;;;39.01;24.69;101154.06;5023233;28;20028;-84
2022/07/02 10:08:45;;;;;;;6.20;3.97;;;;;;;38.21;26.28;101154.78;5036392;28;20033;-84
2022/07/02 10:11:11;;;;;;;6.72;3.80;;;;;;;39.57;24.63;101140.53;5017371;28;20480;-82
2022/07/02 10:13:37;;;;;;;5.18;4.30;;;;;;;39.04;25.10;101157.00;5020091;28;20037;-84
2022/07/02 10:16:03;;;;;;;6.57;3.97;;;;;;;39.47;23.98;101157.81;5036855;28;20100;-81
2022/07/02 10:18:29;;;;;;;4.90;4.15;;;;;;;39.94;23.35;101156.69;5036080;28;20033;-83
2022/07/02 10:20:59;;;;;;;7.25;3.83;;;;;;;38.57;24.86;101145.09;5056094;28;20047;-83
2022/07/02 10:23:25;;;;;;;7.07;3.90;;;;;;;37.85;26.55;101141.22;5054837;28;20118;-84
2022/07/02 10:25:50;;;;;;;6.18;3.90;;;;;;;37.50;27.51;101158.88;5053433;28;20020;-82
2022/07/02 10:28:16;;;;;;;4.88;3.70;;;;;;;37.90;27.35;101153.06;5041917;28;20064;-84
2022/07/02 10:30:42;;;;;;;4.20;3.80;;;;;;;37.54;28.43;101159.91;5036608;28;20456;-83
2022/07/02 10:33:32;;;;;;;7.13;4.03;;;;;;;37.18;28.25;101138.63;5018701;28;20486;-84
2022/07/02 10:35:59;;;;;;;5.32;4.10;;;;;;;37.20;28.63;101157.09;5052593;28;20024;-83
2022/07/02 10:38:35;;;;;;;5.97;3.95;;;;;;;37.18;28.21;101152.66;5019376;28;20044;-86
2022/07/02 10:41:01;;;;;;;7.65;4.13;;;;;;;37.66;27.27;101147.19;5036987;28;20131;-85
2022/07/02 10:43:28;;;;;;;6.72;4.30;;;;;;;36.66;29.41;101144.13;5035665;28;20024;-85
2022/07/02 10:46:10;;;;;;;10.55;4.40;;;;;;;36.66;29.29;101134.91;5036675;28;20197;-85
2022/07/02 10:48:46;;;;;;;9.70;4.32;;;;;;;36.18;30.13;101133.75;5036036;28;20037;-86
2022/07/02 10:51:38;;;;;;;9.40;4.38;;;;;;;35.78;30.54;101153.28;5070015;28;20024;-84
2022/07/02 10:54:06;;;;;;;7.03;4.70;;;;;;;36.20;30.00;101145.47;5064563;28;20044;-84
2022/07/02 10:56:46;;;;;;;7.65;4.40;;;;;;;34.82;33.09;101141.25;5051475;28;20411;-84
2022/07/02 10:59:22;;;;;;;7.88;4.40;;;;;;;33.88;35.31;101138.91;5037339;28;20299;-84
2022/07/02 11:01:47;;;;;;;8.38;4.30;;;;;;;33.35;36.29;101149.25;5035649;28;20064;-88
2022/07/02 11:04:20;;;;;;;6.72;4.70;;;;;;;33.31;36.45;101150.97;5052476;28;20647;-87
2022/07/02 11:06:47;;;;;;;11.18;4.30;;;;;;;32.94;36.88;101149.84;5049201;28;20029;-88
2022/07/02 11:09:12;;;;;;;5.20;4.50;;;;;;;32.49;37.31;101149.25;5055544;28;20032;-85
2022/07/02 11:11:39;;;;;;;8.63;4.50;;;;;;;32.01;39.14;101154.81;5051078;28;20032;-85
2022/07/02 11:14:18;;;;;;;7.35;4.45;;;;;;;31.35;41.25;101158.88;5091181;28;20317;-84
2022/07/02 11:16:50;;;;;;;6.45;4.35;;;;;;;31.09;41.69;101149.91;5065516;28;20032;-84
2022/07/02 11:19:29;;;;;;;7.60;4.30;;;;;;;31.51;41.33;101154.09;5071701;28;20044;-86
2022/07/02 11:21:59;;;;;;;6.85;4.40;;;;;;;31.49;41.43;101148.00;5034146;28;20029;-85
2022/07/02 11:24:28;;;;;;;7.80;4.80;;;;;;;31.89;40.77;101154.31;5038150;28;20123;-85